Time;durP1;ratioP1;P1;durP2;ratioP2;P2;SDS_P1;SDS_P2;PMS_P1;PMS_P2;Temp;Humidity;BMP_temperature;BMP_pressure;BME280_temperature;BME280_humidity;BME280_pressure;Samples;Min_cycle;Max_cycle;Signal;HPM_P1;HPM_P2
2023/07/18 00:01:15;;;;;;;5.73;5.17;;;14.40;99.90;;;;;;5114286;28;20165;-74
2023/07/18 00:03:41;;;;;;;6.50;5.90;;;14.30;99.90;;;;;;5113879;28;20169;-73
2023/07/18 00:06:08;;;;;;;8.33;5.97;;;14.30;99.90;;;;;;5114309;28;20400;-74
2023/07/18 00:08:33;;;;;;;6.07;5.50;;;14.20;99.90;;;;;;5107281;28;20638;-73
2023/07/18 00:10:59;;;;;;;5.97;5.37;;;14.20;99.90;;;;;;5093522;28;20296;-73
2023/07/18 00:13:25;;;;;;;6.13;5.23;;;14.20;99.90;;;;;;5093283;28;20317;-73
2023/07/18 00:15:51;;;;;;;6.20;5.70;;;14.30;99.90;;;;;;5090676;28;20277;-73
2023/07/18 00:18:16;;;;;;;6.67;5.87;;;14.20;99.90;;;;;;5113083;28;20655;-73
2023/07/18 00:20:42;;;;;;;6.57;5.50;;;14.20;99.90;;;;;;5094540;28;20284;-73
2023/07/18 00:23:10;;;;;;;6.10;5.50;;;14.20;99.90;;;;;;5112678;28;20169;-73
2023/07/18 00:25:35;;;;;;;6.03;5.33;;;14.20;99.90;;;;;;5094940;28;20169;-74
2023/07/18 00:28:01;;;;;;;6.07;5.57;;;14.20;99.90;;;;;;5113753;28;20250;-74
2023/07/18 00:30:27;;;;;;;6.07;5.47;;;14.20;99.90;;;;;;5113733;28;20703;-73
2023/07/18 00:32:52;;;;;;;6.30;5.50;;;14.10;99.90;;;;;;5113314;28;20165;-73
2023/07/18 00:35:18;;;;;;;8.67;5.57;;;14.10;99.90;;;;;;5113713;28;20169;-74
2023/07/18 00:37:44;;;;;;;7.60;5.80;;;14.10;99.90;;;;;;5113530;28;20226;-74
2023/07/18 00:40:12;;;;;;;5.87;5.43;;;14.10;99.90;;;;;;5111285;28;20578;-74
2023/07/18 00:42:42;;;;;;;6.20;5.70;;;14.10;99.90;;;;;;5092965;28;20169;-74
2023/07/18 00:45:09;;;;;;;7.00;5.30;;;14.00;99.90;;;;;;5093116;28;20642;-74
2023/07/18 00:47:37;;;;;;;5.87;5.37;;;14.00;99.90;;;;;;5093039;28;20171;-73
2023/07/18 00:50:07;;;;;;;6.67;5.83;;;13.90;99.90;;;;;;5092820;28;20204;-73
2023/07/18 00:52:32;;;;;;;6.07;5.53;;;13.90;99.90;;;;;;5092793;28;20258;-73
2023/07/18 00:54:58;;;;;;;5.80;5.30;;;13.90;99.90;;;;;;5092773;28;20217;-73
2023/07/18 00:57:24;;;;;;;7.13;5.40;;;13.80;99.90;;;;;;5092865;28;20169;-75
2023/07/18 00:59:50;;;;;;;6.33;5.73;;;13.80;99.90;;;;;;5074520;28;20200;-74
2023/07/18 01:02:16;;;;;;;7.00;6.37;;;13.80;99.90;;;;;;5092547;28;20642;-74
2023/07/18 01:04:42;;;;;;;9.17;6.00;;;13.70;99.90;;;;;;5092604;28;20170;-74
2023/07/18 01:07:08;;;;;;;7.50;6.03;;;13.70;99.90;;;;;;5092519;28;20260;-73
2023/07/18 01:09:33;;;;;;;8.03;6.40;;;13.70;99.90;;;;;;5105991;28;20265;-73
2023/07/18 01:11:59;;;;;;;7.37;5.83;;;13.70;99.90;;;;;;5112551;28;20250;-74
2023/07/18 01:14:25;;;;;;;14.47;6.70;;;13.60;99.90;;;;;;5112782;28;20542;-74
2023/07/18 01:16:54;;;;;;;6.20;5.70;;;13.70;99.90;;;;;;5094574;28;20204;-73
2023/07/18 01:19:21;;;;;;;7.00;5.47;;;13.60;99.90;;;;;;5112722;28;20585;-74
2023/07/18 01:21:47;;;;;;;10.57;6.37;;;13.60;99.90;;;;;;5112664;28;20259;-74
2023/07/18 01:24:13;;;;;;;7.33;6.30;;;13.60;99.90;;;;;;5112526;28;20255;-74
2023/07/18 01:26:38;;;;;;;9.53;6.53;;;13.60;99.90;;;;;;5112650;28;20639;-74
2023/07/18 01:29:04;;;;;;;6.77;6.00;;;13.60;99.90;;;;;;5110304;28;20207;-73
2023/07/18 01:31:30;;;;;;;6.10;5.53;;;13.50;99.90;;;;;;5112531;28;20262;-74
2023/07/18 01:33:56;;;;;;;8.23;6.47;;;13.50;99.90;;;;;;5112208;28;20172;-74
2023/07/18 01:36:22;;;;;;;10.40;6.43;;;13.50;99.90;;;;;;5109300;28;20173;-74
2023/07/18 01:38:48;;;;;;;9.33;6.67;;;13.50;99.90;;;;;;5092204;28;20181;-74
2023/07/18 01:41:13;;;;;;;7.10;6.40;;;13.50;99.90;;;;;;5073890;28;20629;-74
2023/07/18 01:43:39;;;;;;;10.40;6.30;;;13.40;99.90;;;;;;5091526;28;20203;-74
2023/07/18 01:46:05;;;;;;;8.67;6.43;;;13.40;99.90;;;;;;5091936;28;20637;-73
2023/07/18 01:48:30;;;;;;;8.97;6.50;;;13.40;99.90;;;;;;5073858;28;20182;-74
2023/07/18 01:50:57;;;;;;;7.57;6.23;;;13.40;99.90;;;;;;5091757;28;20201;-74
2023/07/18 01:53:22;;;;;;;9.67;7.03;;;13.40;99.90;;;;;;5091466;28;20197;-74
2023/07/18 01:55:48;;;;;;;8.20;6.83;;;13.30;99.90;;;;;;5091688;28;20663;-74
2023/07/18 01:58:13;;;;;;;8.70;6.97;;;13.30;99.90;;;;;;5091852;28;20180;-74
2023/07/18 02:00:39;;;;;;;8.40;6.00;;;13.30;99.90;;;;;;5091749;28;20567;-74
2023/07/18 02:03:05;;;;;;;8.43;6.80;;;13.30;99.90;;;;;;5091319;28;20200;-73
2023/07/18 02:05:32;;;;;;;7.40;6.73;;;13.30;99.90;;;;;;5103972;28;20188;-74
2023/07/18 02:07:58;;;;;;;8.93;7.27;;;13.30;99.90;;;;;;5112031;28;20584;-74
2023/07/18 02:10:24;;;;;;;8.90;6.33;;;13.30;99.90;;;;;;5112079;28;20260;-74
2023/07/18 02:12:51;;;;;;;9.93;7.10;;;13.30;99.90;;;;;;5091524;28;20209;-74
2023/07/18 02:15:17;;;;;;;10.40;6.97;;;13.30;99.90;;;;;;5091462;28;20161;-74
2023/07/18 02:17:43;;;;;;;13.63;6.97;;;13.30;99.90;;;;;;5091229;28;20223;-73
2023/07/18 02:20:11;;;;;;;10.93;6.60;;;13.20;99.90;;;;;;5099286;28;20189;-79
2023/07/18 02:22:39;;;;;;;7.53;6.80;;;13.20;99.90;;;;;;5105452;28;20215;-78
2023/07/18 02:25:06;;;;;;;8.97;6.73;;;13.20;99.90;;;;;;5104704;28;20226;-78
2023/07/18 02:27:34;;;;;;;11.40;6.80;;;13.20;99.90;;;;;;5105164;28;20170;-75
2023/07/18 02:30:03;;;;;;;8.77;7.10;;;13.20;99.90;;;;;;5104460;28;20270;-75
2023/07/18 02:32:29;;;;;;;7.20;6.50;;;13.20;99.90;;;;;;5109574;28;20200;-75
2023/07/18 02:34:55;;;;;;;10.70;6.70;;;13.10;99.90;;;;;;5128165;28;20237;-77
2023/07/18 02:37:23;;;;;;;6.97;6.30;;;13.10;99.90;;;;;;5108579;28;20198;-77
2023/07/18 02:39:49;;;;;;;8.57;7.00;;;13.10;99.90;;;;;;5125968;28;20204;-76
2023/07/18 02:42:15;;;;;;;12.70;7.60;;;13.00;99.90;;;;;;5129995;28;20180;-76
2023/07/18 02:44:41;;;;;;;9.67;6.97;;;13.00;99.90;;;;;;5129476;28;20161;-77
2023/07/18 02:47:07;;;;;;;9.07;6.90;;;12.90;99.90;;;;;;5129882;28;20183;-76
2023/07/18 02:49:32;;;;;;;8.30;6.80;;;12.90;99.90;;;;;;5112301;28;20200;-74
2023/07/18 02:51:58;;;;;;;10.67;7.27;;;12.90;99.90;;;;;;5130247;28;20211;-79
2023/07/18 02:54:23;;;;;;;9.83;6.50;;;12.80;99.90;;;;;;5129532;28;20197;-76
2023/07/18 02:56:49;;;;;;;9.73;7.83;;;12.80;99.90;;;;;;5129431;28;20222;-78
2023/07/18 02:59:20;;;;;;;11.00;7.30;;;12.80;99.90;;;;;;5129694;28;20208;-76
2023/07/18 03:01:56;;;;;;;8.60;7.00;;;12.70;99.90;;;;;;5115252;28;20185;-77
2023/07/18 03:04:22;;;;;;;9.23;7.00;;;12.70;99.90;;;;;;5110162;28;20194;-76
2023/07/18 03:06:51;;;;;;;8.17;6.97;;;12.70;99.90;;;;;;5108771;28;20663;-76
2023/07/18 03:09:17;;;;;;;7.37;6.67;;;12.70;99.90;;;;;;5109171;28;20204;-76
2023/07/18 03:11:43;;;;;;;10.00;7.60;;;12.70;99.90;;;;;;5110053;28;20261;-77
2023/07/18 03:14:11;;;;;;;9.10;7.10;;;12.70;99.90;;;;;;5099543;28;20189;-76
2023/07/18 03:16:38;;;;;;;7.27;6.57;;;12.70;99.90;;;;;;5129026;28;20187;-78
2023/07/18 03:19:04;;;;;;;7.87;7.07;;;12.70;99.90;;;;;;5128255;28;20189;-78
2023/07/18 03:21:30;;;;;;;8.30;7.30;;;12.70;99.90;;;;;;5128676;28;20195;-77
2023/07/18 03:23:56;;;;;;;7.93;6.87;;;12.70;99.90;;;;;;5128639;28;20173;-75
2023/07/18 03:26:22;;;;;;;8.43;7.10;;;12.70;99.90;;;;;;5130321;28;20200;-75
2023/07/18 03:28:48;;;;;;;12.83;7.30;;;12.70;99.90;;;;;;5122754;28;20189;-74
2023/07/18 03:31:13;;;;;;;8.13;7.10;;;12.70;99.90;;;;;;5109004;28;20571;-75
2023/07/18 03:33:40;;;;;;;8.97;7.60;;;12.70;99.90;;;;;;5109373;28;20165;-79
2023/07/18 03:36:06;;;;;;;9.33;7.33;;;12.70;99.90;;;;;;5109162;28;20196;-76
2023/07/18 03:38:32;;;;;;;9.27;7.40;;;12.60;99.90;;;;;;5109896;28;20248;-76
2023/07/18 03:40:58;;;;;;;12.50;7.53;;;12.60;99.90;;;;;;5109755;28;20201;-79
2023/07/18 03:43:38;;;;;;;7.87;6.77;;;12.60;99.90;;;;;;5110970;28;20196;-77
2023/07/18 03:46:04;;;;;;;13.80;7.40;;;12.50;99.90;;;;;;5076710;28;20196;-72
2023/07/18 03:48:30;;;;;;;14.83;8.53;;;12.50;99.90;;;;;;5094333;28;20177;-72
2023/07/18 03:50:55;;;;;;;7.73;7.03;;;12.50;99.90;;;;;;5094097;28;20244;-72
2023/07/18 03:53:21;;;;;;;10.53;7.97;;;12.50;99.90;;;;;;5093341;28;20176;-72
2023/07/18 03:55:46;;;;;;;11.07;7.60;;;12.50;99.90;;;;;;5093982;28;20216;-72
2023/07/18 03:58:12;;;;;;;11.73;7.07;;;12.40;99.90;;;;;;5111769;28;20398;-73
2023/07/18 04:00:38;;;;;;;7.90;7.20;;;12.40;99.90;;;;;;5114334;28;20196;-72
2023/07/18 04:03:04;;;;;;;8.30;7.43;;;12.50;99.90;;;;;;5114317;28;20215;-72
2023/07/18 04:05:30;;;;;;;9.37;6.77;;;12.40;99.90;;;;;;5113708;28;20226;-72
2023/07/18 04:07:55;;;;;;;11.17;7.60;;;12.40;99.90;;;;;;5114051;28;20181;-72
2023/07/18 04:10:21;;;;;;;8.70;6.90;;;12.40;99.90;;;;;;5114080;28;20288;-71
2023/07/18 04:12:47;;;;;;;7.53;6.77;;;12.40;99.90;;;;;;5113848;28;20179;-71
2023/07/18 04:15:14;;;;;;;8.50;7.70;;;12.40;99.90;;;;;;5114002;28;20203;-72
2023/07/18 04:17:40;;;;;;;12.00;7.57;;;12.40;99.90;;;;;;5113885;28;20252;-71
2023/07/18 04:20:06;;;;;;;13.70;7.17;;;12.50;99.90;;;;;;5113906;28;20238;-72
2023/07/18 04:22:32;;;;;;;7.47;6.63;;;12.50;99.90;;;;;;5113679;28;20243;-72
2023/07/18 04:24:58;;;;;;;11.40;7.03;;;12.50;99.90;;;;;;5106276;28;20177;-72
2023/07/18 04:27:26;;;;;;;12.87;7.03;;;12.50;99.90;;;;;;5075150;28;20205;-72
2023/07/18 04:29:52;;;;;;;9.23;7.17;;;12.60;99.90;;;;;;5093200;28;20272;-72
2023/07/18 04:32:18;;;;;;;13.27;8.37;;;12.60;99.90;;;;;;5093227;28;20197;-72
2023/07/18 04:34:46;;;;;;;12.20;7.53;;;12.60;99.90;;;;;;5093082;28;20263;-72
2023/07/18 04:37:12;;;;;;;12.03;6.50;;;12.60;99.90;;;;;;5093224;28;20165;-73
2023/07/18 04:39:37;;;;;;;8.57;6.70;;;12.60;99.90;;;;;;5093116;28;20182;-73
2023/07/18 04:42:03;;;;;;;8.40;6.87;;;12.70;99.90;;;;;;5093059;28;20184;-73
2023/07/18 04:44:30;;;;;;;11.40;6.83;;;12.80;99.90;;;;;;5093009;28;20169;-73
2023/07/18 04:46:55;;;;;;;7.30;6.70;;;12.80;99.90;;;;;;5093038;28;20165;-73
2023/07/18 04:49:25;;;;;;;7.87;6.87;;;12.90;99.90;;;;;;5093122;28;20243;-73
2023/07/18 04:51:51;;;;;;;12.90;6.77;;;12.90;99.90;;;;;;5092688;28;20197;-73
2023/07/18 04:54:17;;;;;;;10.93;6.90;;;13.00;99.90;;;;;;5110816;28;20257;-73
2023/07/18 04:56:43;;;;;;;11.00;6.70;;;13.10;99.90;;;;;;5113125;28;20193;-73
2023/07/18 04:59:09;;;;;;;10.03;7.50;;;13.20;99.90;;;;;;5113162;28;20246;-73
2023/07/18 05:01:36;;;;;;;11.93;6.47;;;13.40;99.90;;;;;;5113187;28;20172;-72
2023/07/18 05:04:02;;;;;;;8.63;7.23;;;13.60;99.90;;;;;;5111567;28;20184;-72
2023/07/18 05:06:28;;;;;;;7.43;6.63;;;13.80;99.90;;;;;;5113110;28;20181;-72
2023/07/18 05:08:53;;;;;;;6.97;6.27;;;14.00;99.90;;;;;;5112864;28;20227;-73
2023/07/18 05:11:19;;;;;;;7.13;5.97;;;14.20;99.90;;;;;;5112926;28;20201;-73
2023/07/18 05:13:44;;;;;;;7.67;6.87;;;14.30;99.90;;;;;;5096521;28;20530;-72
2023/07/18 05:16:10;;;;;;;7.40;6.70;;;14.40;99.90;;;;;;5092529;28;20225;-72
2023/07/18 05:18:36;;;;;;;7.43;6.07;;;14.50;99.90;;;;;;5074416;28;20165;-73
2023/07/18 05:21:01;;;;;;;6.63;6.13;;;14.70;99.90;;;;;;5099567;28;20564;-72
2023/07/18 05:23:27;;;;;;;6.43;5.30;;;14.90;99.90;;;;;;5112486;28;20168;-73
2023/07/18 05:25:56;;;;;;;7.00;5.43;;;15.20;99.90;;;;;;5112619;28;20173;-72
2023/07/18 05:28:22;;;;;;;6.83;5.43;;;15.50;99.90;;;;;;5112752;28;20275;-73
2023/07/18 05:30:47;;;;;;;7.87;5.67;;;15.70;99.90;;;;;;5112709;28;20649;-73
2023/07/18 05:33:13;;;;;;;12.87;6.33;;;15.70;99.90;;;;;;5112276;28;20234;-73
2023/07/18 05:35:39;;;;;;;6.33;5.73;;;15.70;99.90;;;;;;5112564;28;20195;-73
2023/07/18 05:38:05;;;;;;;6.70;5.53;;;15.60;99.90;;;;;;5112435;28;20169;-73
2023/07/18 05:40:30;;;;;;;5.67;5.20;;;15.60;99.90;;;;;;5112658;28;20188;-73
2023/07/18 05:42:56;;;;;;;7.97;5.40;;;15.60;99.90;;;;;;5112112;28;20551;-73
2023/07/18 05:45:21;;;;;;;5.80;5.30;;;15.70;99.90;;;;;;5112317;28;20161;-74
2023/07/18 05:47:47;;;;;;;5.87;5.27;;;15.90;99.90;;;;;;5112111;28;20226;-73
2023/07/18 05:50:13;;;;;;;5.77;5.27;;;16.10;99.90;;;;;;5094625;28;20272;-73
2023/07/18 05:52:39;;;;;;;6.27;5.00;;;16.50;99.90;;;;;;5091472;28;20204;-73
2023/07/18 05:55:05;;;;;;;9.27;4.87;;;16.90;99.90;;;;;;5091693;28;20536;-73
2023/07/18 05:57:31;;;;;;;5.67;5.03;;;17.50;99.90;;;;;;5091703;28;20545;-73
2023/07/18 05:59:57;;;;;;;6.00;5.40;;;18.00;99.90;;;;;;5091816;28;20194;-72
2023/07/18 06:02:22;;;;;;;6.43;5.83;;;18.40;99.90;;;;;;5091556;28;20201;-74
2023/07/18 06:04:48;;;;;;;5.57;5.07;;;18.80;99.90;;;;;;5090847;28;20166;-74
2023/07/18 06:07:15;;;;;;;9.17;5.60;;;19.20;99.90;;;;;;5097303;28;20268;-73
2023/07/18 06:09:42;;;;;;;4.70;4.30;;;19.60;99.90;;;;;;5093568;28;20219;-73
2023/07/18 06:12:08;;;;;;;4.18;3.88;;;20.10;99.90;;;;;;5099319;28;20219;-72
2023/07/18 06:14:34;;;;;;;4.57;3.95;;;20.50;99.90;;;;;;5090647;28;20219;-73
2023/07/18 06:16:59;;;;;;;4.57;3.78;;;21.00;99.90;;;;;;5090132;28;20177;-73
2023/07/18 06:19:25;;;;;;;4.43;3.63;;;21.30;99.90;;;;;;5091623;28;20661;-73
2023/07/18 06:21:51;;;;;;;4.13;3.83;;;21.60;99.90;;;;;;5091149;28;20173;-73
2023/07/18 06:24:16;;;;;;;4.38;3.55;;;21.70;99.90;;;;;;5091030;28;20257;-73
2023/07/18 06:26:48;;;;;;;4.22;3.83;;;21.90;99.90;;;;;;5091139;28;20165;-73
2023/07/18 06:29:18;;;;;;;5.57;4.47;;;22.30;99.90;;;;;;5091268;28;20661;-74
2023/07/18 06:31:45;;;;;;;4.45;3.53;;;22.60;99.90;;;;;;5072962;28;20201;-74
2023/07/18 06:34:11;;;;;;;3.70;3.40;;;23.00;99.90;;;;;;5090857;28;20540;-76
2023/07/18 06:36:36;;;;;;;5.25;3.10;;;23.50;99.90;;;;;;5091033;28;20173;-76
2023/07/18 06:39:03;;;;;;;3.58;3.05;;;24.00;99.90;;;;;;5090808;28;20200;-76
2023/07/18 06:41:29;;;;;;;4.90;3.05;;;24.20;99.90;;;;;;5091334;28;20378;-75
2023/07/18 06:43:54;;;;;;;3.40;3.10;;;24.50;99.90;;;;;;5090447;28;20633;-75
2023/07/18 06:46:21;;;;;;;4.32;3.17;;;24.60;99.90;;;;;;5107930;28;20230;-76
2023/07/18 06:48:47;;;;;;;3.95;2.83;;;24.60;99.90;;;;;;5111063;28;20583;-75
2023/07/18 06:51:14;;;;;;;3.13;2.72;;;24.70;99.90;;;;;;5111211;28;20200;-75
2023/07/18 06:53:40;;;;;;;3.65;3.08;;;24.90;99.90;;;;;;5109154;28;20173;-73
2023/07/18 06:56:06;;;;;;;6.57;4.05;;;25.20;99.90;;;;;;5103384;28;20307;-73
2023/07/18 06:58:31;;;;;;;5.63;4.00;;;25.60;99.90;;;;;;5091072;28;20166;-73
2023/07/18 07:00:57;;;;;;;4.82;3.63;;;26.00;99.90;;;;;;5093883;28;20208;-72
2023/07/18 07:03:22;;;;;;;4.43;3.50;;;26.30;99.90;;;;;;5110893;28;20183;-73
2023/07/18 07:05:48;;;;;;;3.60;3.30;;;26.70;99.90;;;;;;5092772;28;20267;-72
2023/07/18 07:08:18;;;;;;;3.30;3.00;;;27.10;99.90;;;;;;5111461;28;20180;-72
2023/07/18 07:10:44;;;;;;;3.13;2.83;;;27.40;99.90;;;;;;5111383;28;20223;-73
2023/07/18 07:13:10;;;;;;;3.13;2.92;;;27.60;99.90;;;;;;5110669;28;20287;-72
2023/07/18 07:15:36;;;;;;;4.28;3.55;;;27.70;99.90;;;;;;5092886;28;20599;-73
2023/07/18 07:18:06;;;;;;;3.45;3.15;;;27.70;99.90;;;;;;5111043;28;20640;-73
2023/07/18 07:20:33;;;;;;;5.25;3.50;;;27.70;99.90;;;;;;5111468;28;20192;-73
2023/07/18 07:23:00;;;;;;;3.85;3.53;;;27.70;99.90;;;;;;5110777;28;20674;-73
2023/07/18 07:25:31;;;;;;;3.95;3.60;;;27.80;99.90;;;;;;5092596;28;20575;-73
2023/07/18 07:27:57;;;;;;;4.60;3.10;;;27.90;99.90;;;;;;5092444;28;20223;-72
2023/07/18 07:30:23;;;;;;;4.95;3.15;;;28.10;99.90;;;;;;5094440;28;20542;-75
2023/07/18 07:32:53;;;;;;;6.40;3.13;;;28.10;99.90;;;;;;5093979;28;20186;-75
2023/07/18 07:35:20;;;;;;;4.70;3.10;;;28.20;99.90;;;;;;5100995;28;20192;-75
2023/07/18 07:37:47;;;;;;;3.95;3.42;;;28.50;99.90;;;;;;5095993;28;20183;-75
2023/07/18 07:40:13;;;;;;;3.70;2.88;;;28.90;99.90;;;;;;5096177;28;20188;-75
2023/07/18 07:42:39;;;;;;;5.40;3.42;;;29.30;99.90;;;;;;5114260;28;20196;-75
2023/07/18 07:45:06;;;;;;;3.67;3.35;;;29.50;99.90;;;;;;5114252;28;20180;-75
2023/07/18 07:47:32;;;;;;;8.90;3.00;;;29.50;99.90;;;;;;5114291;28;20200;-75
2023/07/18 07:49:57;;;;;;;4.15;2.75;;;29.40;99.90;;;;;;5114161;28;20228;-75
2023/07/18 07:52:23;;;;;;;3.75;3.00;;;29.20;99.90;;;;;;5112446;28;20613;-75
2023/07/18 07:54:49;;;;;;;4.78;4.38;;;28.80;99.90;;;;;;5095864;28;20164;-75
2023/07/18 07:57:15;;;;;;;3.92;3.47;;;28.40;99.90;;;;;;5114163;28;20527;-75
2023/07/18 07:59:42;;;;;;;3.22;2.90;;;28.10;99.90;;;;;;5114121;28;20702;-75
2023/07/18 08:02:08;;;;;;;4.55;2.85;;;28.00;99.90;;;;;;5095595;28;20185;-75
2023/07/18 08:04:33;;;;;;;6.80;3.22;;;28.20;99.90;;;;;;5114116;28;20169;-75
2023/07/18 08:06:59;;;;;;;4.30;3.63;;;28.70;99.90;;;;;;5114049;28;20230;-75
2023/07/18 08:09:24;;;;;;;3.53;3.22;;;28.90;99.90;;;;;;5095575;28;20208;-72
2023/07/18 08:11:50;;;;;;;3.40;3.20;;;29.00;99.90;;;;;;5113740;28;20224;-73
2023/07/18 08:14:17;;;;;;;6.25;3.38;;;29.00;99.90;;;;;;5113621;28;20161;-73
2023/07/18 08:16:43;;;;;;;3.33;3.13;;;29.20;99.90;;;;;;5114027;28;20165;-72
2023/07/18 08:19:09;;;;;;;3.88;3.00;;;29.40;99.90;;;;;;5111883;28;20693;-72
2023/07/18 08:21:35;;;;;;;3.97;3.58;;;29.20;99.90;;;;;;5093327;28;20181;-72
2023/07/18 08:24:01;;;;;;;6.20;3.67;;;29.20;99.90;;;;;;5092769;28;20170;-72
2023/07/18 08:26:26;;;;;;;4.75;3.20;;;29.20;99.90;;;;;;5093494;28;20653;-72
2023/07/18 08:28:52;;;;;;;3.53;3.22;;;29.40;99.90;;;;;;5093036;28;20201;-72
2023/07/18 08:31:19;;;;;;;3.53;3.22;;;29.50;99.90;;;;;;5092885;28;20727;-72
2023/07/18 08:33:44;;;;;;;3.88;3.58;;;29.50;99.90;;;;;;5092782;28;20165;-73
2023/07/18 08:36:10;;;;;;;4.35;2.92;;;29.50;99.90;;;;;;5092627;28;20537;-72
2023/07/18 08:38:36;;;;;;;4.35;3.03;;;29.40;99.90;;;;;;5107792;28;20208;-72
2023/07/18 08:41:01;;;;;;;3.35;3.10;;;29.30;99.90;;;;;;5113137;28;20262;-72
2023/07/18 08:43:27;;;;;;;5.38;3.13;;;29.10;99.90;;;;;;5113010;28;20168;-73
2023/07/18 08:45:54;;;;;;;3.55;3.17;;;28.80;99.90;;;;;;5113414;28;20169;-72
2023/07/18 08:48:19;;;;;;;4.03;3.78;;;28.40;99.90;;;;;;5101166;28;20169;-72
2023/07/18 08:50:45;;;;;;;3.67;3.10;;;28.30;99.90;;;;;;5092624;28;20212;-72
2023/07/18 08:53:11;;;;;;;4.63;3.05;;;28.50;99.90;;;;;;5092832;28;20230;-73
2023/07/18 08:55:36;;;;;;;3.30;2.88;;;28.40;99.90;;;;;;5092991;28;20460;-72
2023/07/18 08:58:02;;;;;;;8.45;3.70;;;28.50;99.90;;;;;;5092593;28;20165;-73
2023/07/18 09:00:28;;;;;;;4.00;3.17;;;28.80;99.90;;;;;;5074634;28;20197;-73
2023/07/18 09:02:54;;;;;;;8.18;3.53;;;29.10;99.90;;;;;;5092110;28;20196;-73
2023/07/18 09:05:34;;;;;;;3.70;3.30;;;29.30;99.90;;;;;;5092736;28;20193;-73
2023/07/18 09:08:01;;;;;;;3.08;2.75;;;29.80;99.90;;;;;;5092676;28;20176;-73
2023/07/18 09:10:27;;;;;;;11.98;3.33;;;30.20;99.90;;;;;;5092418;28;20201;-73
2023/07/18 09:12:53;;;;;;;3.97;2.88;;;30.30;99.90;;;;;;5092151;28;20169;-73
2023/07/18 09:15:20;;;;;;;3.25;3.00;;;30.30;99.90;;;;;;5095358;28;20165;-73
2023/07/18 09:17:57;;;;;;;3.80;3.45;;;30.50;99.90;;;;;;5112881;28;20172;-72
2023/07/18 09:20:27;;;;;;;3.58;2.88;;;30.90;99.90;;;;;;5112597;28;20199;-73
2023/07/18 09:22:57;;;;;;;3.58;2.85;;;31.30;99.90;;;;;;5112342;28;20173;-73
2023/07/18 09:25:24;;;;;;;4.70;3.17;;;31.40;99.40;;;;;;5112662;28;20165;-73
2023/07/18 09:27:54;;;;;;;3.25;3.05;;;31.10;99.10;;;;;;5112575;28;20165;-73
2023/07/18 09:30:34;;;;;;;3.75;3.00;;;30.90;97.70;;;;;;5112446;28;20189;-73
2023/07/18 09:33:02;;;;;;;5.53;5.15;;;30.60;97.50;;;;;;5112062;28;20176;-73
2023/07/18 09:35:28;;;;;;;3.67;3.47;;;30.10;98.10;;;;;;5112193;28;20259;-73
2023/07/18 09:37:54;;;;;;;3.53;3.22;;;29.70;97.70;;;;;;5112033;28;20255;-72
2023/07/18 09:40:19;;;;;;;3.50;2.75;;;28.60;97.50;;;;;;5092806;28;20201;-72
2023/07/18 09:42:47;;;;;;;3.65;3.35;;;27.70;98.80;;;;;;5091782;28;20261;-71
2023/07/18 09:45:14;;;;;;;3.38;3.00;;;27.30;99.60;;;;;;5110240;28;20603;-72
2023/07/18 09:47:44;;;;;;;4.25;3.28;;;27.00;99.90;;;;;;5112248;28;20168;-72
2023/07/18 09:50:12;;;;;;;3.15;2.70;;;27.30;99.90;;;;;;5105367;28;20546;-71
2023/07/18 09:52:58;;;;;;;4.05;3.20;;;27.50;99.90;;;;;;5091556;28;20631;-74
2023/07/18 09:55:26;;;;;;;8.10;4.30;;;28.10;99.90;;;;;;5092027;28;20165;-73
2023/07/18 09:57:55;;;;;;;4.57;3.05;;;28.60;99.90;;;;;;5091781;28;20532;-71
2023/07/18 10:00:22;;;;;;;3.40;2.83;;;28.90;99.90;;;;;;5091718;28;20280;-71
2023/07/18 10:02:49;;;;;;;5.88;3.45;;;29.00;99.90;;;;;;5091404;28;20659;-72
2023/07/18 10:05:15;;;;;;;4.05;3.70;;;29.10;99.90;;;;;;5091758;28;20460;-71
2023/07/18 10:07:43;;;;;;;4.57;3.63;;;29.10;99.90;;;;;;5091518;28;20182;-71
2023/07/18 10:10:10;;;;;;;3.42;3.10;;;29.20;99.90;;;;;;5091269;28;20241;-72
2023/07/18 10:12:37;;;;;;;4.85;2.92;;;29.30;99.90;;;;;;5091279;28;20205;-71
2023/07/18 10:15:04;;;;;;;4.05;3.30;;;29.00;98.80;;;;;;5073454;28;20166;-71
2023/07/18 10:17:41;;;;;;;3.40;3.10;;;28.60;98.50;;;;;;5091776;28;20568;-71
2023/07/18 10:20:33;;;;;;;3.28;3.05;;;28.00;99.90;;;;;;5110907;28;20645;-71
2023/07/18 10:22:59;;;;;;;3.17;2.90;;;27.80;99.90;;;;;;5104895;28;20173;-71
2023/07/18 10:25:29;;;;;;;4.00;3.55;;;27.60;99.90;;;;;;5102306;28;20221;-72
2023/07/18 10:27:56;;;;;;;6.72;2.92;;;27.80;99.90;;;;;;5106513;28;20240;-72
2023/07/18 10:30:22;;;;;;;3.45;3.08;;;28.00;99.90;;;;;;5091403;28;20238;-72
2023/07/18 10:32:57;;;;;;;4.18;3.25;;;28.20;99.90;;;;;;5071559;28;20607;-72
2023/07/18 10:35:26;;;;;;;3.13;2.78;;;28.50;99.90;;;;;;5091829;28;20185;-71
2023/07/18 10:38:03;;;;;;;7.55;3.25;;;28.90;99.90;;;;;;5094378;28;20166;-71
2023/07/18 10:40:39;;;;;;;3.80;3.10;;;29.00;99.30;;;;;;5096849;28;20195;-71
2023/07/18 10:43:07;;;;;;;6.13;3.60;;;29.00;99.50;;;;;;5110986;28;20168;-72
2023/07/18 10:45:41;;;;;;;4.30;2.80;;;28.70;98.90;;;;;;5111099;28;20180;-71
2023/07/18 10:48:14;;;;;;;3.47;3.17;;;28.60;99.30;;;;;;5111252;28;20172;-72
2023/07/18 10:50:41;;;;;;;4.15;3.17;;;28.60;99.90;;;;;;5111361;28;20229;-72
2023/07/18 10:53:20;;;;;;;4.35;3.33;;;28.80;99.90;;;;;;5111033;28;20183;-71
2023/07/18 10:55:46;;;;;;;4.20;3.90;;;28.90;99.50;;;;;;5110614;28;20172;-72
2023/07/18 10:58:31;;;;;;;3.40;3.08;;;28.90;99.90;;;;;;5109547;28;20177;-72
2023/07/18 11:00:57;;;;;;;4.22;3.63;;;28.90;99.90;;;;;;5111157;28;20244;-72
2023/07/18 11:03:27;;;;;;;3.70;3.40;;;29.00;99.90;;;;;;5113916;28;20173;-72
2023/07/18 11:05:53;;;;;;;6.20;3.22;;;29.10;99.70;;;;;;5102256;28;20184;-71
2023/07/18 11:08:30;;;;;;;4.15;3.85;;;29.20;99.90;;;;;;5095098;28;20651;-72
2023/07/18 11:11:00;;;;;;;5.70;3.28;;;29.50;99.90;;;;;;5094557;28;20212;-72
2023/07/18 11:13:36;;;;;;;3.30;3.10;;;29.60;98.10;;;;;;5094518;28;20672;-71
2023/07/18 11:16:09;;;;;;;4.03;3.40;;;29.40;99.30;;;;;;5094541;28;20176;-72
2023/07/18 11:18:41;;;;;;;3.72;3.08;;;29.40;97.80;;;;;;5094762;28;20165;-72
2023/07/18 11:21:07;;;;;;;3.78;3.28;;;29.40;99.80;;;;;;5094493;28;20260;-71
2023/07/18 11:23:34;;;;;;;3.78;3.03;;;29.50;99.60;;;;;;5076225;28;20182;-72
2023/07/18 11:26:09;;;;;;;5.15;4.65;;;29.80;99.90;;;;;;5094414;28;20169;-71
2023/07/18 11:28:36;;;;;;;5.03;4.63;;;30.10;98.60;;;;;;5094653;28;20177;-71
2023/07/18 11:31:01;;;;;;;5.88;3.92;;;30.40;99.90;;;;;;5094211;28;20245;-73
2023/07/18 11:33:28;;;;;;;4.80;3.70;;;30.60;98.90;;;;;;5094236;28;20169;-72
2023/07/18 11:35:56;;;;;;;2.80;2.60;;;31.10;99.50;;;;;;5094185;28;20166;-72
2023/07/18 11:38:24;;;;;;;3.30;3.00;;;31.40;97.80;;;;;;5096352;28;20747;-72
2023/07/18 11:40:50;;;;;;;3.40;3.10;;;31.50;98.90;;;;;;5114599;28;20588;-72
2023/07/18 11:43:18;;;;;;;3.47;2.90;;;31.40;96.10;;;;;;5113718;28;20168;-72
2023/07/18 11:45:44;;;;;;;4.22;3.13;;;31.30;98.30;;;;;;5114590;28;20193;-71
2023/07/18 11:48:10;;;;;;;4.15;2.97;;;31.20;96.00;;;;;;5109318;28;20409;-71
2023/07/18 11:50:35;;;;;;;4.30;3.45;;;31.00;97.10;;;;;;5102751;28;20251;-71
2023/07/18 11:53:03;;;;;;;5.25;3.00;;;30.90;96.90;;;;;;5098679;28;20216;-73
2023/07/18 11:55:30;;;;;;;3.38;3.08;;;30.90;97.90;;;;;;5094397;28;20500;-72
2023/07/18 11:57:56;;;;;;;4.13;3.20;;;31.20;99.30;;;;;;5094011;28;20281;-74
2023/07/18 12:00:22;;;;;;;4.20;3.28;;;31.30;96.00;;;;;;5093989;28;20223;-74
2023/07/18 12:02:48;;;;;;;3.30;3.00;;;31.20;97.50;;;;;;5093591;28;20181;-74
2023/07/18 12:05:15;;;;;;;4.40;2.85;;;31.30;97.20;;;;;;5093387;28;20510;-73
2023/07/18 12:07:45;;;;;;;4.05;3.03;;;30.90;96.70;;;;;;5093693;28;20170;-74
2023/07/18 12:10:12;;;;;;;6.20;3.53;;;30.40;94.80;;;;;;5094081;28;20209;-73
2023/07/18 12:12:39;;;;;;;3.80;3.50;;;29.90;96.00;;;;;;5092047;28;20686;-73
2023/07/18 12:15:06;;;;;;;3.55;3.00;;;29.60;97.90;;;;;;5093055;28;20169;-73
2023/07/18 12:17:31;;;;;;;5.47;4.25;;;29.30;97.20;;;;;;5092799;28;20189;-73
2023/07/18 12:19:57;;;;;;;5.05;4.10;;;29.20;96.70;;;;;;5074907;28;20193;-72
2023/07/18 12:22:24;;;;;;;4.20;3.50;;;29.00;99.10;;;;;;5093407;28;20191;-71
2023/07/18 12:24:50;;;;;;;4.95;4.65;;;28.90;96.90;;;;;;5092767;28;20629;-72
2023/07/18 12:27:16;;;;;;;4.50;4.18;;;28.80;98.20;;;;;;5093452;28;20227;-71
2023/07/18 12:29:42;;;;;;;4.60;4.20;;;28.90;97.40;;;;;;5075378;28;20707;-72
2023/07/18 12:32:09;;;;;;;5.72;4.13;;;28.80;98.40;;;;;;5092993;28;20209;-71
2023/07/18 12:34:41;;;;;;;6.63;6.00;;;28.90;98.10;;;;;;5075079;28;20239;-71
2023/07/18 12:37:08;;;;;;;4.97;4.50;;;28.90;96.70;;;;;;5093248;28;20174;-73
2023/07/18 12:39:34;;;;;;;7.65;3.58;;;29.00;98.10;;;;;;5093517;28;20195;-72
2023/07/18 12:42:00;;;;;;;5.30;3.50;;;29.20;99.40;;;;;;5093026;28;20181;-72
2023/07/18 12:44:43;;;;;;;4.45;3.97;;;29.30;98.30;;;;;;5107063;28;20191;-72